Rio Negro, Brazil
Current Conditions -  °F | °C
As of 8:00 AM on Thursday 23 Oct 2014 (Local Time) from SBCG Reporting Station
Clear Clear  
Wind Chill: 73°   Ceiling: Unl
Heat Index: 73°   Visibility: 6mi
Dew Point: 61°   Wind: 18mph
Humidity: 65%   Direction: 80°E
Pressure: 30.03"   Gusts: NA
Location:  19.45°S, 54.97°W
Report Text: SBCG 231100Z 08016KT CAVOK 23/16 Q1017
Loading
Personal Weather Stations






























Interactive Weather Map New forecast layout! Learn more

10-Day Weather Forecast

Advertisements
Track Severe Weather on mobile